sensor_id;sensor_type;location;lat;lon;timestamp;pressure;altitude;pressure_sealevel;temperature;humidity
46456;BME280;32154;47.160;8.120;2022-07-24T00:02:39;96177.59;;;24.31;68.88
46456;BME280;32154;47.160;8.120;2022-07-24T00:07:42;96189.41;;;24.23;68.76
46456;BME280;32154;47.160;8.120;2022-07-24T00:12:45;96193.13;;;24.42;68.25
46456;BME280;32154;47.160;8.120;2022-07-24T00:18:05;96186.31;;;24.13;68.61
46456;BME280;32154;47.160;8.120;2022-07-24T00:23:09;96190.44;;;23.95;70.22
46456;BME280;32154;47.160;8.120;2022-07-24T00:28:11;96190.06;;;24.12;69.34
46456;BME280;32154;47.160;8.120;2022-07-24T00:33:13;96179.91;;;24.07;67.68
46456;BME280;32154;47.160;8.120;2022-07-24T00:38:35;96175.94;;;23.83;68.14
46456;BME280;32154;47.160;8.120;2022-07-24T00:49:25;96172.69;;;23.05;70.81
46456;BME280;32154;47.160;8.120;2022-07-24T00:54:46;96173.88;;;22.96;71.41
46456;BME280;32154;47.160;8.120;2022-07-24T01:00:08;96167.41;;;22.77;72.11
46456;BME280;32154;47.160;8.120;2022-07-24T01:05:11;96170.84;;;23.12;71.82
46456;BME280;32154;47.160;8.120;2022-07-24T01:10:32;96177.06;;;23.20;71.53
46456;BME280;32154;47.160;8.120;2022-07-24T01:15:34;96178.94;;;23.26;70.71
46456;BME280;32154;47.160;8.120;2022-07-24T01:20:37;96175.63;;;23.17;69.65
46456;BME280;32154;47.160;8.120;2022-07-24T01:25:41;96181.19;;;23.15;69.28
46456;BME280;32154;47.160;8.120;2022-07-24T01:31:02;96172.47;;;23.00;69.88
46456;BME280;32154;47.160;8.120;2022-07-24T01:36:05;96179.63;;;22.86;70.56
46456;BME280;32154;47.160;8.120;2022-07-24T01:41:26;96164.81;;;22.97;69.51
46456;BME280;32154;47.160;8.120;2022-07-24T01:46:29;96170.34;;;22.88;69.96
46456;BME280;32154;47.160;8.120;2022-07-24T01:51:31;96167.22;;;22.85;69.61
46456;BME280;32154;47.160;8.120;2022-07-24T01:56:52;96173.16;;;22.67;69.19
46456;BME280;32154;47.160;8.120;2022-07-24T02:02:13;96167.38;;;22.35;70.09
46456;BME280;32154;47.160;8.120;2022-07-24T02:07:15;96173.63;;;22.42;70.42
46456;BME280;32154;47.160;8.120;2022-07-24T02:12:17;96172.97;;;22.40;70.32
46456;BME280;32154;47.160;8.120;2022-07-24T02:17:39;96167.81;;;22.38;70.01
46456;BME280;32154;47.160;8.120;2022-07-24T02:22:41;96164.13;;;22.46;70.12
46456;BME280;32154;47.160;8.120;2022-07-24T02:28:02;96166.06;;;22.52;70.58
46456;BME280;32154;47.160;8.120;2022-07-24T02:33:22;96161.66;;;22.44;71.38
46456;BME280;32154;47.160;8.120;2022-07-24T02:38:25;96160.72;;;22.59;70.59
46456;BME280;32154;47.160;8.120;2022-07-24T02:43:46;96164.34;;;22.44;70.45
46456;BME280;32154;47.160;8.120;2022-07-24T02:48:48;96168.66;;;22.39;70.22
46456;BME280;32154;47.160;8.120;2022-07-24T02:54:09;96170.31;;;22.40;70.42
46456;BME280;32154;47.160;8.120;2022-07-24T02:59:12;96166.94;;;22.31;70.13
46456;BME280;32154;47.160;8.120;2022-07-24T03:04:14;96160.53;;;22.32;71.00
46456;BME280;32154;47.160;8.120;2022-07-24T03:09:35;96159.31;;;22.35;70.52
46456;BME280;32154;47.160;8.120;2022-07-24T03:14:37;96158.25;;;22.29;70.97
46456;BME280;32154;47.160;8.120;2022-07-24T03:19:59;96154.84;;;22.13;70.30
46456;BME280;32154;47.160;8.120;2022-07-24T03:25:01;96156.81;;;21.98;70.67
46456;BME280;32154;47.160;8.120;2022-07-24T03:30:05;96155.56;;;21.94;70.21
46456;BME280;32154;47.160;8.120;2022-07-24T03:35:08;96165.16;;;21.81;70.41
46456;BME280;32154;47.160;8.120;2022-07-24T03:40:29;96163.88;;;21.77;71.55
46456;BME280;32154;47.160;8.120;2022-07-24T03:45:50;96178.53;;;21.74;70.97
46456;BME280;32154;47.160;8.120;2022-07-24T03:51:11;96173.03;;;21.61;70.49
46456;BME280;32154;47.160;8.120;2022-07-24T03:56:13;96170.34;;;21.61;70.80
46456;BME280;32154;47.160;8.120;2022-07-24T04:01:18;96177.88;;;21.51;70.98
46456;BME280;32154;47.160;8.120;2022-07-24T04:06:39;96179.31;;;21.53;70.58
46456;BME280;32154;47.160;8.120;2022-07-24T04:11:41;96181.94;;;21.46;70.99
46456;BME280;32154;47.160;8.120;2022-07-24T04:17:02;96182.44;;;21.57;72.00
46456;BME280;32154;47.160;8.120;2022-07-24T04:22:04;96185.13;;;21.57;71.28
46456;BME280;32154;47.160;8.120;2022-07-24T04:27:07;96193.63;;;21.60;70.21
46456;BME280;32154;47.160;8.120;2022-07-24T04:32:27;96190.31;;;21.37;71.47
46456;BME280;32154;47.160;8.120;2022-07-24T04:37:30;96194.09;;;21.42;71.22
46456;BME280;32154;47.160;8.120;2022-07-24T04:42:51;96189.34;;;21.44;70.40
46456;BME280;32154;47.160;8.120;2022-07-24T04:47:53;96192.66;;;21.46;71.21
46456;BME280;32154;47.160;8.120;2022-07-24T04:53:14;96193.06;;;21.65;70.12
46456;BME280;32154;47.160;8.120;2022-07-24T04:58:16;96189.91;;;21.76;71.00
46456;BME280;32154;47.160;8.120;2022-07-24T05:03:37;96186.75;;;21.95;70.83
46456;BME280;32154;47.160;8.120;2022-07-24T05:08:58;96191.38;;;22.08;71.57
46456;BME280;32154;47.160;8.120;2022-07-24T05:14:00;96196.00;;;21.92;70.55
46456;BME280;32154;47.160;8.120;2022-07-24T05:19:03;96189.66;;;22.00;70.36
46456;BME280;32154;47.160;8.120;2022-07-24T05:24:24;96196.09;;;22.06;69.83
46456;BME280;32154;47.160;8.120;2022-07-24T05:29:27;96198.84;;;22.12;69.25
46456;BME280;32154;47.160;8.120;2022-07-24T05:34:29;96194.56;;;22.25;69.36
46456;BME280;32154;47.160;8.120;2022-07-24T05:39:50;96193.41;;;22.34;69.57
46456;BME280;32154;47.160;8.120;2022-07-24T05:44:58;96197.47;;;22.23;69.00
46456;BME280;32154;47.160;8.120;2022-07-24T05:50:01;96190.50;;;22.29;68.87
46456;BME280;32154;47.160;8.120;2022-07-24T05:55:22;96198.75;;;22.56;68.63
46456;BME280;32154;47.160;8.120;2022-07-24T06:00:24;96196.72;;;22.65;67.15
46456;BME280;32154;47.160;8.120;2022-07-24T06:05:27;96200.09;;;23.36;66.79
46456;BME280;32154;47.160;8.120;2022-07-24T06:10:29;96194.81;;;24.03;63.92
46456;BME280;32154;47.160;8.120;2022-07-24T06:15:32;96192.56;;;24.93;59.41
46456;BME280;32154;47.160;8.120;2022-07-24T06:20:41;96194.50;;;25.63;57.67
46456;BME280;32154;47.160;8.120;2022-07-24T06:26:02;96194.81;;;26.31;57.86
46456;BME280;32154;47.160;8.120;2022-07-24T06:31:04;96201.09;;;26.69;54.84
46456;BME280;32154;47.160;8.120;2022-07-24T06:36:25;96200.44;;;26.92;51.85
46456;BME280;32154;47.160;8.120;2022-07-24T06:41:46;96204.50;;;27.32;51.30
46456;BME280;32154;47.160;8.120;2022-07-24T06:46:58;96193.50;;;27.88;50.54
46456;BME280;32154;47.160;8.120;2022-07-24T06:52:20;96195.81;;;28.27;49.14
46456;BME280;32154;47.160;8.120;2022-07-24T06:57:41;96195.19;;;29.26;46.11
46456;BME280;32154;47.160;8.120;2022-07-24T07:03:02;96193.91;;;28.87;46.07
46456;BME280;32154;47.160;8.120;2022-07-24T07:08:04;96189.31;;;29.75;45.17
46456;BME280;32154;47.160;8.120;2022-07-24T07:13:25;96184.78;;;29.98;44.29
46456;BME280;32154;47.160;8.120;2022-07-24T07:18:27;96188.53;;;29.45;43.41
46456;BME280;32154;47.160;8.120;2022-07-24T07:23:29;96179.44;;;29.40;45.80
46456;BME280;32154;47.160;8.120;2022-07-24T07:28:32;96182.28;;;29.45;44.50
46456;BME280;32154;47.160;8.120;2022-07-24T07:33:34;96174.53;;;29.25;45.18
46456;BME280;32154;47.160;8.120;2022-07-24T07:38:55;96169.94;;;29.54;45.06
46456;BME280;32154;47.160;8.120;2022-07-24T07:44:16;96170.91;;;30.11;45.45
46456;BME280;32154;47.160;8.120;2022-07-24T07:49:37;96165.88;;;30.20;43.50
46456;BME280;32154;47.160;8.120;2022-07-24T07:54:58;96171.84;;;30.56;43.85
46456;BME280;32154;47.160;8.120;2022-07-24T08:00:19;96175.34;;;30.35;41.99
46456;BME280;32154;47.160;8.120;2022-07-24T08:05:21;96176.63;;;30.89;41.23
46456;BME280;32154;47.160;8.120;2022-07-24T08:10:42;96173.97;;;30.54;42.69
46456;BME280;32154;47.160;8.120;2022-07-24T08:16:04;96166.81;;;30.48;41.95
46456;BME280;32154;47.160;8.120;2022-07-24T08:21:25;96156.47;;;30.90;42.64
46456;BME280;32154;47.160;8.120;2022-07-24T08:26:49;96154.03;;;30.88;43.69
46456;BME280;32154;47.160;8.120;2022-07-24T08:32:10;96158.31;;;30.84;43.49
46456;BME280;32154;47.160;8.120;2022-07-24T08:37:40;96164.66;;;31.12;41.11
46456;BME280;32154;47.160;8.120;2022-07-24T08:42:42;96160.66;;;31.20;43.21
46456;BME280;32154;47.160;8.120;2022-07-24T08:47:45;96156.47;;;31.34;42.33
46456;BME280;32154;47.160;8.120;2022-07-24T08:52:48;96162.66;;;31.85;42.37
46456;BME280;32154;47.160;8.120;2022-07-24T08:57:50;96156.69;;;31.55;42.85
46456;BME280;32154;47.160;8.120;2022-07-24T09:03:11;96151.50;;;31.59;42.68
46456;BME280;32154;47.160;8.120;2022-07-24T09:08:14;96143.66;;;32.33;42.04
46456;BME280;32154;47.160;8.120;2022-07-24T09:13:17;96145.84;;;32.31;40.28
46456;BME280;32154;47.160;8.120;2022-07-24T09:18:31;96145.72;;;32.58;40.28
46456;BME280;32154;47.160;8.120;2022-07-24T09:23:37;96141.69;;;32.23;39.32
46456;BME280;32154;47.160;8.120;2022-07-24T09:28:50;96137.13;;;32.87;40.85
46456;BME280;32154;47.160;8.120;2022-07-24T09:34:12;96139.41;;;32.47;40.91
46456;BME280;32154;47.160;8.120;2022-07-24T09:39:17;96136.00;;;32.83;39.63
46456;BME280;32154;47.160;8.120;2022-07-24T09:44:20;96137.78;;;33.15;39.46
46456;BME280;32154;47.160;8.120;2022-07-24T09:49:24;96139.16;;;33.18;37.68
46456;BME280;32154;47.160;8.120;2022-07-24T09:54:31;96132.69;;;33.55;40.30
46456;BME280;32154;47.160;8.120;2022-07-24T09:59:55;96124.78;;;33.48;38.08
46456;BME280;32154;47.160;8.120;2022-07-24T10:05:00;96129.91;;;33.34;39.45
46456;BME280;32154;47.160;8.120;2022-07-24T10:10:03;96122.31;;;33.57;37.55
46456;BME280;32154;47.160;8.120;2022-07-24T10:15:29;96122.31;;;33.47;40.25
46456;BME280;32154;47.160;8.120;2022-07-24T10:20:41;96124.22;;;33.93;37.02
46456;BME280;32154;47.160;8.120;2022-07-24T10:25:53;96116.03;;;34.95;35.72
46456;BME280;32154;47.160;8.120;2022-07-24T10:31:15;96109.06;;;32.92;39.06
46456;BME280;32154;47.160;8.120;2022-07-24T10:36:26;96114.28;;;34.44;36.34
46456;BME280;32154;47.160;8.120;2022-07-24T10:42:01;96103.84;;;34.67;34.86
46456;BME280;32154;47.160;8.120;2022-07-24T10:47:25;96108.00;;;35.20;34.31
46456;BME280;32154;47.160;8.120;2022-07-24T10:52:30;96105.31;;;35.09;33.57
46456;BME280;32154;47.160;8.120;2022-07-24T10:58:02;96093.88;;;34.92;34.42
46456;BME280;32154;47.160;8.120;2022-07-24T11:03:07;96097.56;;;35.22;34.49
46456;BME280;32154;47.160;8.120;2022-07-24T11:08:29;96087.72;;;35.15;34.63
46456;BME280;32154;47.160;8.120;2022-07-24T11:13:52;96086.22;;;35.39;32.93
46456;BME280;32154;47.160;8.120;2022-07-24T11:29:24;96072.41;;;35.54;34.42
46456;BME280;32154;47.160;8.120;2022-07-24T11:34:29;96061.97;;;35.16;33.93
46456;BME280;32154;47.160;8.120;2022-07-24T11:39:35;96058.91;;;35.63;33.83
46456;BME280;32154;47.160;8.120;2022-07-24T11:44:56;96053.53;;;35.08;34.12
46456;BME280;32154;47.160;8.120;2022-07-24T11:50:27;96054.38;;;35.08;33.26
46456;BME280;32154;47.160;8.120;2022-07-24T11:55:30;96049.41;;;35.10;34.21
46456;BME280;32154;47.160;8.120;2022-07-24T12:00:51;96037.72;;;34.94;32.15
46456;BME280;32154;47.160;8.120;2022-07-24T12:05:53;96030.72;;;33.39;33.28
46456;BME280;32154;47.160;8.120;2022-07-24T12:10:57;96028.66;;;32.08;36.21
46456;BME280;32154;47.160;8.120;2022-07-24T12:16:26;96017.44;;;32.53;35.81
46456;BME280;32154;47.160;8.120;2022-07-24T12:21:51;96018.66;;;33.87;34.26
46456;BME280;32154;47.160;8.120;2022-07-24T12:27:49;96005.44;;;34.20;35.66
46456;BME280;32154;47.160;8.120;2022-07-24T12:33:06;96009.41;;;33.72;32.63
46456;BME280;32154;47.160;8.120;2022-07-24T12:38:10;95998.28;;;34.40;34.08
46456;BME280;32154;47.160;8.120;2022-07-24T12:43:13;95992.75;;;33.48;37.45
46456;BME280;32154;47.160;8.120;2022-07-24T12:53:23;95990.84;;;34.45;32.98
46456;BME280;32154;47.160;8.120;2022-07-24T12:58:53;95982.59;;;33.85;32.89
46456;BME280;32154;47.160;8.120;2022-07-24T13:04:01;95977.34;;;34.04;33.40
46456;BME280;32154;47.160;8.120;2022-07-24T13:09:24;95980.03;;;34.19;34.20
46456;BME280;32154;47.160;8.120;2022-07-24T13:14:46;95965.59;;;33.93;35.44
46456;BME280;32154;47.160;8.120;2022-07-24T13:19:50;95959.72;;;34.31;32.40
46456;BME280;32154;47.160;8.120;2022-07-24T13:25:11;95951.78;;;34.29;34.62
46456;BME280;32154;47.160;8.120;2022-07-24T13:30:32;95946.78;;;33.81;33.75
46456;BME280;32154;47.160;8.120;2022-07-24T13:35:35;95936.81;;;34.16;34.60
46456;BME280;32154;47.160;8.120;2022-07-24T13:40:55;95940.97;;;34.03;35.44
46456;BME280;32154;47.160;8.120;2022-07-24T13:45:59;95934.41;;;34.04;36.19
46456;BME280;32154;47.160;8.120;2022-07-24T13:51:01;95930.16;;;33.41;37.29
46456;BME280;32154;47.160;8.120;2022-07-24T13:56:07;95918.09;;;33.63;35.45
46456;BME280;32154;47.160;8.120;2022-07-24T14:01:10;95909.97;;;33.47;35.66
46456;BME280;32154;47.160;8.120;2022-07-24T14:06:13;95902.78;;;33.67;36.15
46456;BME280;32154;47.160;8.120;2022-07-24T14:11:21;95900.81;;;33.83;35.73
46456;BME280;32154;47.160;8.120;2022-07-24T14:16:24;95894.31;;;33.69;36.21
46456;BME280;32154;47.160;8.120;2022-07-24T14:21:27;95889.78;;;34.14;34.76
46456;BME280;32154;47.160;8.120;2022-07-24T14:26:29;95887.97;;;33.78;35.99
46456;BME280;32154;47.160;8.120;2022-07-24T14:31:50;95877.59;;;33.75;35.02
46456;BME280;32154;47.160;8.120;2022-07-24T14:36:53;95876.25;;;33.78;34.15
46456;BME280;32154;47.160;8.120;2022-07-24T14:42:14;95874.84;;;33.81;35.20
46456;BME280;32154;47.160;8.120;2022-07-24T14:47:16;95877.06;;;33.73;37.13
46456;BME280;32154;47.160;8.120;2022-07-24T14:52:38;95867.31;;;33.41;34.81
46456;BME280;32154;47.160;8.120;2022-07-24T14:57:59;95874.72;;;33.25;36.99
46456;BME280;32154;47.160;8.120;2022-07-24T15:03:20;95854.91;;;33.80;34.90
46456;BME280;32154;47.160;8.120;2022-07-24T15:08:23;95850.34;;;33.44;35.57
46456;BME280;32154;47.160;8.120;2022-07-24T15:13:26;95858.31;;;33.46;33.35
46456;BME280;32154;47.160;8.120;2022-07-24T15:18:31;95855.44;;;33.82;34.64
46456;BME280;32154;47.160;8.120;2022-07-24T15:23:51;95844.53;;;33.72;33.95
46456;BME280;32154;47.160;8.120;2022-07-24T15:29:12;95832.84;;;33.56;35.11
46456;BME280;32154;47.160;8.120;2022-07-24T15:34:15;95832.34;;;33.33;32.86
46456;BME280;32154;47.160;8.120;2022-07-24T15:39:18;95825.22;;;33.42;32.74
46456;BME280;32154;47.160;8.120;2022-07-24T15:44:21;95827.94;;;33.53;35.59
46456;BME280;32154;47.160;8.120;2022-07-24T15:49:27;95814.84;;;33.39;36.22
46456;BME280;32154;47.160;8.120;2022-07-24T15:54:30;95808.38;;;33.04;34.09
46456;BME280;32154;47.160;8.120;2022-07-24T15:59:32;95812.75;;;33.10;36.91
46456;BME280;32154;47.160;8.120;2022-07-24T16:04:35;95798.56;;;32.77;37.89
46456;BME280;32154;47.160;8.120;2022-07-24T16:09:37;95804.03;;;32.46;37.89
46456;BME280;32154;47.160;8.120;2022-07-24T16:14:40;95784.38;;;32.44;36.87
46456;BME280;32154;47.160;8.120;2022-07-24T16:20:01;95782.47;;;32.39;38.13
46456;BME280;32154;47.160;8.120;2022-07-24T16:25:22;95778.91;;;32.28;39.35
46456;BME280;32154;47.160;8.120;2022-07-24T16:30:44;95768.50;;;32.09;39.14
46456;BME280;32154;47.160;8.120;2022-07-24T16:35:47;95764.72;;;32.16;38.92
46456;BME280;32154;47.160;8.120;2022-07-24T16:40:50;95766.06;;;32.03;39.61
46456;BME280;32154;47.160;8.120;2022-07-24T16:46:11;95760.59;;;31.87;39.26
46456;BME280;32154;47.160;8.120;2022-07-24T16:51:15;95765.75;;;31.83;39.50
46456;BME280;32154;47.160;8.120;2022-07-24T16:56:38;95757.81;;;31.77;38.79
46456;BME280;32154;47.160;8.120;2022-07-24T17:01:59;95746.56;;;31.52;39.54
46456;BME280;32154;47.160;8.120;2022-07-24T17:07:23;95754.75;;;31.52;39.82
46456;BME280;32154;47.160;8.120;2022-07-24T17:12:43;95749.81;;;31.44;41.20
46456;BME280;32154;47.160;8.120;2022-07-24T17:17:46;95745.41;;;31.33;42.83
46456;BME280;32154;47.160;8.120;2022-07-24T17:22:49;95739.03;;;31.06;42.09
46456;BME280;32154;47.160;8.120;2022-07-24T17:27:54;95741.75;;;31.06;42.56
46456;BME280;32154;47.160;8.120;2022-07-24T17:33:00;95733.22;;;30.87;43.13
46456;BME280;32154;47.160;8.120;2022-07-24T17:38:02;95735.03;;;30.71;44.64
46456;BME280;32154;47.160;8.120;2022-07-24T17:43:23;95727.25;;;30.52;42.43
46456;BME280;32154;47.160;8.120;2022-07-24T17:48:44;95731.38;;;30.60;42.31
46456;BME280;32154;47.160;8.120;2022-07-24T17:54:08;95730.41;;;30.39;42.23
46456;BME280;32154;47.160;8.120;2022-07-24T17:59:10;95736.09;;;30.37;42.28
46456;BME280;32154;47.160;8.120;2022-07-24T18:04:13;95740.81;;;30.47;41.45
46456;BME280;32154;47.160;8.120;2022-07-24T18:09:34;95732.59;;;30.42;40.02
46456;BME280;32154;47.160;8.120;2022-07-24T18:14:37;95732.03;;;30.35;42.42
46456;BME280;32154;47.160;8.120;2022-07-24T18:19:44;95727.38;;;30.35;41.91
46456;BME280;32154;47.160;8.120;2022-07-24T18:24:47;95730.56;;;29.94;44.23
46456;BME280;32154;47.160;8.120;2022-07-24T18:30:08;95735.59;;;29.80;44.98
46456;BME280;32154;47.160;8.120;2022-07-24T18:35:10;95736.56;;;29.69;45.82
46456;BME280;32154;47.160;8.120;2022-07-24T18:40:15;95732.72;;;29.42;47.25
46456;BME280;32154;47.160;8.120;2022-07-24T18:45:39;95735.31;;;29.32;50.95
46456;BME280;32154;47.160;8.120;2022-07-24T18:50:42;95730.53;;;29.17;48.13
46456;BME280;32154;47.160;8.120;2022-07-24T18:55:45;95734.53;;;29.09;48.02
46456;BME280;32154;47.160;8.120;2022-07-24T19:00:47;95732.47;;;28.99;47.17
46456;BME280;32154;47.160;8.120;2022-07-24T19:05:50;95741.44;;;28.43;51.78
46456;BME280;32154;47.160;8.120;2022-07-24T19:10:52;95741.69;;;28.25;55.28
46456;BME280;32154;47.160;8.120;2022-07-24T19:15:55;95746.78;;;28.38;54.42
46456;BME280;32154;47.160;8.120;2022-07-24T19:20:57;95740.25;;;28.05;52.13
46456;BME280;32154;47.160;8.120;2022-07-24T19:26:21;95743.75;;;28.17;53.43
46456;BME280;32154;47.160;8.120;2022-07-24T19:31:41;95752.53;;;27.78;52.75
46456;BME280;32154;47.160;8.120;2022-07-24T19:36:44;95761.44;;;27.62;55.36
46456;BME280;32154;47.160;8.120;2022-07-24T19:41:46;95761.44;;;27.62;54.40
46456;BME280;32154;47.160;8.120;2022-07-24T19:47:09;95760.06;;;27.47;53.99
46456;BME280;32154;47.160;8.120;2022-07-24T19:52:14;95770.66;;;26.96;57.51
46456;BME280;32154;47.160;8.120;2022-07-24T19:57:17;95763.59;;;26.95;58.53
46456;BME280;32154;47.160;8.120;2022-07-24T20:02:38;95762.97;;;27.05;58.28
46456;BME280;32154;47.160;8.120;2022-07-24T20:07:40;95768.03;;;27.13;55.28
46456;BME280;32154;47.160;8.120;2022-07-24T20:13:02;95771.34;;;26.91;58.10
46456;BME280;32154;47.160;8.120;2022-07-24T20:18:24;95770.38;;;26.86;56.41
46456;BME280;32154;47.160;8.120;2022-07-24T20:23:45;95772.72;;;26.58;57.21
46456;BME280;32154;47.160;8.120;2022-07-24T20:28:47;95772.84;;;26.75;54.45
46456;BME280;32154;47.160;8.120;2022-07-24T20:34:10;95772.06;;;26.87;53.33
46456;BME280;32154;47.160;8.120;2022-07-24T20:39:13;95782.25;;;26.85;53.21
46456;BME280;32154;47.160;8.120;2022-07-24T20:44:17;95782.97;;;26.44;57.84
46456;BME280;32154;47.160;8.120;2022-07-24T20:49:20;95775.41;;;26.34;59.30
46456;BME280;32154;47.160;8.120;2022-07-24T20:54:41;95777.31;;;26.34;59.91
46456;BME280;32154;47.160;8.120;2022-07-24T20:59:43;95777.53;;;26.20;59.64
46456;BME280;32154;47.160;8.120;2022-07-24T21:04:46;95782.25;;;26.25;57.36
46456;BME280;32154;47.160;8.120;2022-07-24T21:09:48;95782.50;;;26.05;59.10
46456;BME280;32154;47.160;8.120;2022-07-24T21:14:51;95776.66;;;26.08;57.60
46456;BME280;32154;47.160;8.120;2022-07-24T21:20:14;95782.78;;;25.85;59.78
46456;BME280;32154;47.160;8.120;2022-07-24T21:25:35;95782.75;;;25.73;61.19
46456;BME280;32154;47.160;8.120;2022-07-24T21:30:38;95782.06;;;25.77;60.20
46456;BME280;32154;47.160;8.120;2022-07-24T21:35:40;95787.91;;;26.05;58.90
46456;BME280;32154;47.160;8.120;2022-07-24T21:40:44;95786.50;;;25.72;57.13
46456;BME280;32154;47.160;8.120;2022-07-24T21:45:46;95784.78;;;25.77;56.07
46456;BME280;32154;47.160;8.120;2022-07-24T21:50:49;95777.47;;;25.78;57.65
46456;BME280;32154;47.160;8.120;2022-07-24T21:56:09;95781.06;;;25.22;59.96
46456;BME280;32154;47.160;8.120;2022-07-24T22:01:13;95777.69;;;25.27;62.45
46456;BME280;32154;47.160;8.120;2022-07-24T22:06:34;95771.69;;;25.06;61.19
46456;BME280;32154;47.160;8.120;2022-07-24T22:11:56;95773.81;;;25.23;61.87
46456;BME280;32154;47.160;8.120;2022-07-24T22:17:17;95771.91;;;25.23;60.84
46456;BME280;32154;47.160;8.120;2022-07-24T22:22:38;95772.28;;;24.71;65.74
46456;BME280;32154;47.160;8.120;2022-07-24T22:28:06;95769.25;;;24.61;64.25
46456;BME280;32154;47.160;8.120;2022-07-24T22:33:11;95773.28;;;24.51;64.31
46456;BME280;32154;47.160;8.120;2022-07-24T22:38:32;95776.00;;;24.19;65.09
46456;BME280;32154;47.160;8.120;2022-07-24T22:43:53;95783.69;;;24.22;64.69
46456;BME280;32154;47.160;8.120;2022-07-24T22:48:55;95768.16;;;24.43;63.92
46456;BME280;32154;47.160;8.120;2022-07-24T22:54:19;95764.00;;;24.47;62.68
46456;BME280;32154;47.160;8.120;2022-07-24T22:59:26;95768.31;;;24.23;64.69
46456;BME280;32154;47.160;8.120;2022-07-24T23:04:49;95771.84;;;24.49;63.39
46456;BME280;32154;47.160;8.120;2022-07-24T23:09:55;95771.31;;;24.14;64.72
46456;BME280;32154;47.160;8.120;2022-07-24T23:15:16;95765.75;;;24.03;65.38
46456;BME280;32154;47.160;8.120;2022-07-24T23:20:19;95766.84;;;23.95;66.03
46456;BME280;32154;47.160;8.120;2022-07-24T23:25:21;95760.88;;;23.93;66.43
46456;BME280;32154;47.160;8.120;2022-07-24T23:30:42;95753.91;;;24.10;65.17
46456;BME280;32154;47.160;8.120;2022-07-24T23:35:49;95757.00;;;24.14;64.03
46456;BME280;32154;47.160;8.120;2022-07-24T23:41:15;95750.31;;;23.91;66.01
46456;BME280;32154;47.160;8.120;2022-07-24T23:46:22;95748.63;;;23.65;66.03
46456;BME280;32154;47.160;8.120;2022-07-24T23:51:48;95741.00;;;23.55;66.77
46456;BME280;32154;47.160;8.120;2022-07-24T23:56:51;95744.56;;;23.49;66.86
